BEE6CX EGLL-EHAM
Flight info
| Callsign | BEE6CX |
|---|---|
| Flight time | N/A |
| Altitude | 23000 |
| Route | BPK Q295 BRAIN M197 REDFA |
| Aircraft | DH8D/M-SDE2E3FGRY/H |
Departure
| Time | N/A |
|---|---|
| Airport | London Heathrow Airport (EGLL) |
Arrival
| Time | 2026-05-04 21:47 |
|---|---|
| Airport | Amsterdam Airport Schiphol (EHAM) |
| Time | Latitude | Longitude | Altitude | Speed | Heading |
|---|---|---|---|---|---|
| 2026-05-04 19:30 | 51.79192 | 0.41241 | 24960 ft | 347 kts | 84° |
| 2026-05-04 19:30 | 51.79500 | 0.45087 | 24997 ft | 349 kts | 84° |
| 2026-05-04 19:30 | 51.79815 | 0.49000 | 25010 ft | 351 kts | 84° |
| 2026-05-04 19:31 | 51.80125 | 0.52903 | 25013 ft | 353 kts | 84° |
| 2026-05-04 19:31 | 51.80436 | 0.56830 | 25014 ft | 354 kts | 84° |
| 2026-05-04 19:31 | 51.80743 | 0.60742 | 25014 ft | 355 kts | 84° |
| 2026-05-04 19:31 | 51.81069 | 0.64721 | 25009 ft | 356 kts | 82° |
| 2026-05-04 19:32 | 51.81639 | 0.68612 | 25014 ft | 358 kts | 76° |
| 2026-05-04 19:32 | 51.82320 | 0.72483 | 25014 ft | 358 kts | 75° |
| 2026-05-04 19:32 | 51.83004 | 0.76372 | 25019 ft | 359 kts | 76° |
| 2026-05-04 19:32 | 51.83683 | 0.80244 | 25020 ft | 359 kts | 76° |
| 2026-05-04 19:33 | 51.84357 | 0.84113 | 25020 ft | 359 kts | 75° |
| 2026-05-04 19:33 | 51.85036 | 0.88028 | 25025 ft | 359 kts | 75° |
| 2026-05-04 19:33 | 51.85705 | 0.91899 | 25023 ft | 359 kts | 75° |
| 2026-05-04 19:33 | 51.86372 | 0.95774 | 25021 ft | 360 kts | 75° |
| 2026-05-04 19:34 | 51.87048 | 0.99718 | 25019 ft | 360 kts | 75° |
| 2026-05-04 19:34 | 51.87709 | 1.03578 | 25019 ft | 360 kts | 75° |
| 2026-05-04 19:34 | 51.88378 | 1.07500 | 25023 ft | 360 kts | 75° |
| 2026-05-04 19:34 | 51.89040 | 1.11391 | 25026 ft | 360 kts | 75° |
| 2026-05-04 19:35 | 51.89704 | 1.15310 | 25025 ft | 360 kts | 75° |
| 2026-05-04 19:35 | 51.90366 | 1.19215 | 25026 ft | 360 kts | 75° |
| 2026-05-04 19:35 | 51.91019 | 1.23084 | 25026 ft | 360 kts | 75° |
| 2026-05-04 19:35 | 51.91687 | 1.27051 | 25024 ft | 361 kts | 75° |
| 2026-05-04 19:36 | 51.92344 | 1.30961 | 25024 ft | 361 kts | 75° |
| 2026-05-04 19:36 | 51.93000 | 1.34873 | 25025 ft | 361 kts | 75° |
| 2026-05-04 19:36 | 51.93647 | 1.38740 | 25024 ft | 361 kts | 75° |
| 2026-05-04 19:36 | 51.94301 | 1.42661 | 25023 ft | 361 kts | 75° |
| 2026-05-04 19:37 | 51.94956 | 1.46593 | 25024 ft | 361 kts | 75° |
| 2026-05-04 19:37 | 51.95606 | 1.50510 | 25027 ft | 361 kts | 75° |
| 2026-05-04 19:37 | 51.96255 | 1.54424 | 25029 ft | 361 kts | 75° |
| 2026-05-04 19:37 | 51.96905 | 1.58353 | 25031 ft | 361 kts | 75° |
| 2026-05-04 19:38 | 51.97551 | 1.62272 | 25025 ft | 361 kts | 75° |
| 2026-05-04 19:38 | 51.98199 | 1.66204 | 25020 ft | 360 kts | 76° |
| 2026-05-04 19:38 | 51.98851 | 1.70178 | 25016 ft | 360 kts | 76° |
| 2026-05-04 19:38 | 51.99494 | 1.74101 | 25015 ft | 360 kts | 76° |
| 2026-05-04 19:39 | 52.00132 | 1.78006 | 25012 ft | 360 kts | 76° |
| 2026-05-04 19:39 | 52.00771 | 1.81922 | 25014 ft | 360 kts | 76° |
| 2026-05-04 19:39 | 52.01411 | 1.85855 | 25010 ft | 361 kts | 76° |
| 2026-05-04 19:39 | 52.02049 | 1.89789 | 25012 ft | 361 kts | 76° |
| 2026-05-04 19:40 | 52.02686 | 1.93724 | 25011 ft | 361 kts | 76° |
| 2026-05-04 19:40 | 52.03321 | 1.97656 | 25012 ft | 361 kts | 76° |
| 2026-05-04 19:40 | 52.03949 | 2.01551 | 25013 ft | 361 kts | 76° |
| 2026-05-04 19:40 | 52.04583 | 2.05491 | 25011 ft | 361 kts | 76° |
| 2026-05-04 19:41 | 52.05223 | 2.09479 | 25009 ft | 361 kts | 76° |
| 2026-05-04 19:41 | 52.05846 | 2.13376 | 25010 ft | 361 kts | 75° |
| 2026-05-04 19:41 | 52.06478 | 2.17331 | 25007 ft | 361 kts | 75° |
| 2026-05-04 19:41 | 52.07104 | 2.21262 | 25006 ft | 361 kts | 76° |
| 2026-05-04 19:42 | 52.07730 | 2.25205 | 25010 ft | 361 kts | 75° |
| 2026-05-04 19:42 | 52.08354 | 2.29139 | 25008 ft | 361 kts | 75° |
| 2026-05-04 19:42 | 52.08987 | 2.33140 | 24856 ft | 365 kts | 76° |
| 2026-05-04 19:42 | 52.09603 | 2.37030 | 24417 ft | 354 kts | 75° |
| 2026-05-04 19:43 | 52.10212 | 2.40851 | 23944 ft | 342 kts | 75° |
| 2026-05-04 19:43 | 52.10796 | 2.44535 | 23489 ft | 332 kts | 75° |
| 2026-05-04 19:43 | 52.11374 | 2.48047 | 23065 ft | 321 kts | 71° |
| 2026-05-04 19:43 | 52.12317 | 2.51266 | 22766 ft | 306 kts | 58° |
| 2026-05-04 19:44 | 52.13377 | 2.54168 | 22480 ft | 292 kts | 57° |
| 2026-05-04 19:44 | 52.14383 | 2.56907 | 22225 ft | 279 kts | 57° |
| 2026-05-04 19:44 | 52.15349 | 2.59542 | 21980 ft | 264 kts | 57° |
| 2026-05-04 19:44 | 52.16270 | 2.62062 | 21761 ft | 260 kts | 58° |
| 2026-05-04 19:45 | 52.17222 | 2.64699 | 21538 ft | 281 kts | 58° |
| 2026-05-04 19:45 | 52.18249 | 2.67548 | 21281 ft | 301 kts | 59° |
| 2026-05-04 19:45 | 52.19342 | 2.70579 | 21000 ft | 318 kts | 59° |
| 2026-05-04 19:45 | 52.20487 | 2.73755 | 20705 ft | 332 kts | 59° |
| 2026-05-04 19:46 | 52.21661 | 2.77019 | 20390 ft | 338 kts | 59° |
| 2026-05-04 19:46 | 52.22862 | 2.80361 | 20085 ft | 341 kts | 59° |
| 2026-05-04 19:46 | 52.24065 | 2.83710 | 19773 ft | 345 kts | 59° |
| 2026-05-04 19:46 | 52.25276 | 2.87088 | 19457 ft | 347 kts | 59° |
| 2026-05-04 19:47 | 52.26479 | 2.90447 | 19148 ft | 348 kts | 59° |
| 2026-05-04 19:47 | 52.27697 | 2.93853 | 18838 ft | 350 kts | 59° |
| 2026-05-04 19:47 | 52.28922 | 2.97282 | 18526 ft | 351 kts | 60° |
| 2026-05-04 19:47 | 52.30144 | 3.00708 | 18207 ft | 351 kts | 60° |
| 2026-05-04 19:48 | 52.31376 | 3.04169 | 17888 ft | 351 kts | 60° |
| 2026-05-04 19:48 | 52.32598 | 3.07604 | 17568 ft | 351 kts | 59° |
| 2026-05-04 19:48 | 52.33821 | 3.11049 | 17253 ft | 351 kts | 59° |
| 2026-05-04 19:48 | 52.35047 | 3.14504 | 16932 ft | 350 kts | 59° |
| 2026-05-04 19:49 | 52.36268 | 3.17950 | 16625 ft | 349 kts | 59° |
| 2026-05-04 19:49 | 52.36446 | 3.18453 | 16579 ft | 349 kts | 59° |
| 2026-05-04 21:28 | 52.36518 | 3.18658 | 16562 ft | 349 kts | 59° |
| 2026-05-04 21:29 | 52.37731 | 3.22086 | 16250 ft | 348 kts | 59° |
| 2026-05-04 21:29 | 52.38941 | 3.25514 | 15929 ft | 347 kts | 59° |
| 2026-05-04 21:29 | 52.40145 | 3.28927 | 15621 ft | 346 kts | 59° |
| 2026-05-04 21:29 | 52.41344 | 3.32331 | 15312 ft | 346 kts | 59° |
| 2026-05-04 21:30 | 52.42538 | 3.35728 | 15005 ft | 345 kts | 59° |
| 2026-05-04 21:30 | 52.43724 | 3.39104 | 14710 ft | 344 kts | 59° |
| 2026-05-04 21:30 | 52.44818 | 3.42573 | 14367 ft | 344 kts | 68° |
| 2026-05-04 21:30 | 52.45452 | 3.46336 | 14076 ft | 342 kts | 76° |
| 2026-05-04 21:31 | 52.46516 | 3.53880 | 13471 ft | 339 kts | 76° |
| 2026-05-04 21:31 | 52.47039 | 3.57605 | 13173 ft | 338 kts | 76° |
| 2026-05-04 21:31 | 52.47567 | 3.61347 | 12866 ft | 337 kts | 76° |
| 2026-05-04 21:32 | 52.48095 | 3.65092 | 12565 ft | 336 kts | 77° |
| 2026-05-04 21:32 | 52.48621 | 3.68819 | 12260 ft | 334 kts | 77° |
| 2026-05-04 21:32 | 52.49146 | 3.72544 | 11958 ft | 333 kts | 76° |
| 2026-05-04 21:32 | 52.49666 | 3.76231 | 11657 ft | 332 kts | 76° |
| 2026-05-04 21:33 | 52.50182 | 3.79900 | 11355 ft | 330 kts | 76° |
| 2026-05-04 21:33 | 52.50685 | 3.83456 | 11050 ft | 315 kts | 76° |
| 2026-05-04 21:33 | 52.51169 | 3.86879 | 10763 ft | 304 kts | 76° |
| 2026-05-04 21:33 | 52.51636 | 3.90193 | 10500 ft | 294 kts | 76° |
| 2026-05-04 21:34 | 52.52083 | 3.93405 | 10228 ft | 287 kts | 77° |
| 2026-05-04 21:34 | 52.52100 | 3.96614 | 9935 ft | 280 kts | 105° |
| 2026-05-04 21:34 | 52.51201 | 3.99349 | 9739 ft | 270 kts | 126° |
| 2026-05-04 21:34 | 52.50070 | 4.01784 | 9526 ft | 265 kts | 128° |
| 2026-05-04 21:35 | 52.48949 | 4.04137 | 9319 ft | 261 kts | 128° |
| 2026-05-04 21:35 | 52.47841 | 4.06445 | 9084 ft | 257 kts | 128° |
| 2026-05-04 21:35 | 52.46740 | 4.08729 | 8879 ft | 253 kts | 128° |
| 2026-05-04 21:35 | 52.45654 | 4.10978 | 8678 ft | 249 kts | 128° |
| 2026-05-04 21:36 | 52.44583 | 4.13191 | 8465 ft | 246 kts | 128° |
| 2026-05-04 21:36 | 52.43521 | 4.15379 | 8256 ft | 243 kts | 128° |
| 2026-05-04 21:36 | 52.42474 | 4.17537 | 8055 ft | 240 kts | 128° |
| 2026-05-04 21:36 | 52.41439 | 4.19665 | 7872 ft | 237 kts | 128° |
| 2026-05-04 21:37 | 52.40427 | 4.21744 | 7678 ft | 235 kts | 128° |
| 2026-05-04 21:37 | 52.39410 | 4.23829 | 7481 ft | 233 kts | 127° |
| 2026-05-04 21:37 | 52.38403 | 4.25894 | 7287 ft | 231 kts | 127° |
| 2026-05-04 21:37 | 52.37407 | 4.27932 | 7116 ft | 229 kts | 127° |
| 2026-05-04 21:38 | 52.36409 | 4.29975 | 6927 ft | 227 kts | 127° |
| 2026-05-04 21:38 | 52.35435 | 4.31966 | 6742 ft | 225 kts | 127° |
| 2026-05-04 21:38 | 52.34457 | 4.33964 | 6553 ft | 223 kts | 127° |
| 2026-05-04 21:38 | 52.33484 | 4.35949 | 6361 ft | 221 kts | 127° |
| 2026-05-04 21:39 | 52.32523 | 4.37909 | 6181 ft | 220 kts | 127° |
| 2026-05-04 21:39 | 52.31567 | 4.39856 | 5995 ft | 218 kts | 127° |
| 2026-05-04 21:39 | 52.30629 | 4.41765 | 5819 ft | 216 kts | 127° |
| 2026-05-04 21:39 | 52.29692 | 4.43672 | 5647 ft | 214 kts | 127° |
| 2026-05-04 21:40 | 52.28759 | 4.45567 | 5477 ft | 212 kts | 126° |
| 2026-05-04 21:40 | 52.27847 | 4.47420 | 5306 ft | 211 kts | 126° |
| 2026-05-04 21:40 | 52.26929 | 4.49282 | 5121 ft | 209 kts | 126° |
| 2026-05-04 21:40 | 52.26010 | 4.51147 | 4943 ft | 207 kts | 126° |
| 2026-05-04 21:41 | 52.25108 | 4.52975 | 4769 ft | 205 kts | 126° |
| 2026-05-04 21:41 | 52.24218 | 4.54777 | 4604 ft | 203 kts | 126° |
| 2026-05-04 21:41 | 52.23341 | 4.56551 | 4446 ft | 201 kts | 126° |
| 2026-05-04 21:41 | 52.22468 | 4.58317 | 4287 ft | 199 kts | 126° |
| 2026-05-04 21:42 | 52.21594 | 4.60084 | 4115 ft | 198 kts | 126° |
| 2026-05-04 21:42 | 52.20737 | 4.61813 | 3948 ft | 196 kts | 126° |
| 2026-05-04 21:42 | 52.19881 | 4.63543 | 3791 ft | 194 kts | 126° |
| 2026-05-04 21:42 | 52.19027 | 4.65264 | 3635 ft | 193 kts | 126° |
| 2026-05-04 21:43 | 52.18192 | 4.66947 | 3475 ft | 191 kts | 126° |
| 2026-05-04 21:43 | 52.17365 | 4.68642 | 3309 ft | 188 kts | 122° |
| 2026-05-04 21:43 | 52.17024 | 4.70579 | 3082 ft | 180 kts | 78° |
| 2026-05-04 21:43 | 52.17487 | 4.72448 | 2917 ft | 174 kts | 61° |
| 2026-05-04 21:44 | 52.18061 | 4.74170 | 2917 ft | 179 kts | 60° |
| 2026-05-04 21:44 | 52.18755 | 4.76009 | 2621 ft | 200 kts | 49° |
| 2026-05-04 21:44 | 52.19951 | 4.77036 | 2326 ft | 192 kts | 12° |
| 2026-05-04 21:44 | 52.21241 | 4.77179 | 1997 ft | 183 kts | 7° |
| 2026-05-04 21:45 | 52.22496 | 4.77262 | 1673 ft | 175 kts | 6° |
| 2026-05-04 21:45 | 52.23705 | 4.77340 | 1425 ft | 177 kts | 7° |
| 2026-05-04 21:45 | 52.24929 | 4.77440 | 1476 ft | 163 kts | 7° |
| 2026-05-04 21:45 | 52.26042 | 4.77451 | 1226 ft | 162 kts | 3° |
| 2026-05-04 21:46 | 52.27179 | 4.77508 | 677 ft | 160 kts | 12° |
| 2026-05-04 21:46 | 52.28264 | 4.77662 | 262 ft | 153 kts | 8° |
| 2026-05-04 21:46 | 52.29274 | 4.77742 | 10 ft | 134 kts | 11° |
| 2026-05-04 21:46 | 52.30042 | 4.77827 | 1 ft | 76 kts | 4° |
| 2026-05-04 21:47 | 52.30367 | 4.77840 | 1 ft | 35 kts | 346° |
| 2026-05-04 21:47 | 52.30521 | 4.77729 | 0 ft | 19 kts | 333° |
| 2026-05-04 21:47 | 52.30627 | 4.77642 | 0 ft | 14 kts | 335° |
| 2026-05-04 21:47 | 52.30705 | 4.77595 | 0 ft | 9 kts | 354° |
| 2026-05-04 21:48 | 52.30770 | 4.77598 | 0 ft | 9 kts | 2° |
| 2026-05-04 21:48 | 52.30824 | 4.77559 | 0 ft | 9 kts | 297° |
| 2026-05-04 21:48 | 52.30835 | 4.77434 | 0 ft | 12 kts | 272° |
| 2026-05-04 21:48 | 52.30839 | 4.77307 | 1 ft | 6 kts | 271° |
| 2026-05-04 21:49 | 52.30834 | 4.77239 | 0 ft | 5 kts | 212° |
| 2026-05-04 21:49 | 52.30791 | 4.77230 | 0 ft | 0 kts | 182° |